^^
Station Historical Data
Daily Summary for February 8, 2017 Units:  English    Metric   Both
« Previous Day
Next Day »
Daily Weekly Monthly Yearly Custom
  High: Low: Average:
Temperature: 60.8 °F 33.2 °F 44.4 °F
Dew Point: 51.8 °F 31.3 °F 37.6 °F
Humidity: 97 % 54 % 79 %
Wind Speed: 13.5 mph 0.0 mph 2.6 mph
Wind Gust: 19.6 mph - -
Wind:- - SW
Pressure: 29.74 in 29.56 in -
Precipitation: 0.02 in    
Historical Graphs
 
 
Tabular Data for February 8, 2017
Time Temperature Dew Point Pressure Wind Wind Speed Wind Gust Humidity Rainfall Rate (Hourly) solar Conditions
00:02 35.9 °F 34.6 °F 29.58 in NNE 0.9 mph 2.3 mph 95 % 0.00 in 0.0 W/m2 RA
00:07 35.9 °F 34.9 °F 29.58 in NNE 2.8 mph 3.5 mph 96 % 0.00 in 0.0 W/m2 RA
00:12 36.0 °F 35.0 °F 29.58 in North 1.7 mph 3.5 mph 96 % 0.00 in 0.0 W/m2 CLR
00:17 36.0 °F 35.0 °F 29.58 in North 0.8 mph 3.5 mph 96 % 0.00 in 0.0 W/m2 CLR
00:22 36.0 °F 35.0 °F 29.58 in NNE 2.7 mph 4.0 mph 96 % 0.00 in 0.0 W/m2 CLR
00:27 36.1 °F 35.1 °F 29.58 in NNE 0.4 mph 2.0 mph 96 % 0.00 in 0.0 W/m2 CLR
00:32 36.1 °F 35.1 °F 29.58 in Calm     96 % 0.00 in 0.0 W/m2 CLR
00:37 36.1 °F 35.1 °F 29.59 in Calm     96 % 0.00 in 0.0 W/m2 CLR
00:42 36.3 °F 35.3 °F 29.59 in Calm     96 % 0.00 in 0.0 W/m2 CLR
00:47 36.4 °F 35.4 °F 29.59 in NNW 1.3 mph 1.3 mph 96 % 0.00 in 0.0 W/m2 CLR
00:52 36.5 °F 35.5 °F 29.58 in NNW 0.9 mph 2.3 mph 96 % 0.00 in 0.0 W/m2 CLR
00:57 36.6 °F 35.6 °F 29.59 in NNW 2.0 mph 3.5 mph 96 % 0.00 in 0.0 W/m2 CLR
01:03 36.8 °F 35.8 °F 29.59 in NW 1.8 mph 3.5 mph 96 % 0.00 in 0.0 W/m2 CLR
01:08 36.8 °F 35.8 °F 29.59 in Calm   3.5 mph 96 % 0.00 in 0.0 W/m2 CLR
01:13 36.8 °F 35.8 °F 29.58 in Calm     96 % 0.00 in 0.0 W/m2 CLR
01:18 36.7 °F 35.7 °F 29.58 in Calm     96 % 0.00 in 0.0 W/m2 CLR
01:23 36.8 °F 35.8 °F 29.58 in Calm     96 % 0.00 in 0.0 W/m2 CLR
01:28 36.7 °F 35.7 °F 29.58 in Calm     96 % 0.00 in 0.0 W/m2 CLR
01:33 36.8 °F 35.8 °F 29.58 in Calm     96 % 0.00 in 0.0 W/m2 CLR
01:38 36.8 °F 35.8 °F 29.58 in Calm     96 % 0.00 in 0.0 W/m2 CLR
01:43 36.8 °F 35.8 °F 29.59 in Calm     96 % 0.00 in 0.0 W/m2 CLR
01:48 36.8 °F 35.8 °F 29.58 in Calm     96 % 0.01 in 0.0 W/m2 RA
01:53 36.8 °F 35.8 °F 29.58 in Calm     96 % 0.01 in 0.0 W/m2 RA
01:58 37.0 °F 36.0 °F 29.58 in Calm     96 % 0.01 in 0.0 W/m2
02:03 36.9 °F 35.9 °F 29.58 in Calm     96 % 0.01 in 0.0 W/m2
02:08 36.8 °F 35.8 °F 29.58 in Calm     96 % 0.01 in 0.0 W/m2
02:13 36.9 °F 35.9 °F 29.58 in Calm     96 % 0.01 in 0.0 W/m2
02:18 36.9 °F 35.9 °F 29.58 in Calm     96 % 0.01 in 0.0 W/m2
02:23 36.9 °F 35.9 °F 29.58 in Calm     96 % 0.01 in 0.0 W/m2
02:28 36.8 °F 35.8 °F 29.58 in Calm     96 % 0.01 in 0.0 W/m2
02:33 36.7 °F 35.7 °F 29.58 in Calm     96 % 0.01 in 0.0 W/m2
02:38 36.7 °F 35.7 °F 29.58 in Calm     96 % 0.01 in 0.0 W/m2
02:43 36.7 °F 35.7 °F 29.57 in Calm     96 % 0.01 in 0.0 W/m2
02:48 36.7 °F 35.7 °F 29.58 in Calm     96 % 0.00 in 0.0 W/m2 CLR
02:53 36.6 °F 35.6 °F 29.57 in Calm     96 % 0.00 in 0.0 W/m2 CLR
02:58 36.6 °F 35.6 °F 29.57 in Calm     96 % 0.00 in 0.0 W/m2 CLR
03:03 36.6 °F 35.6 °F 29.57 in Calm     96 % 0.00 in 0.0 W/m2 CLR
03:08 36.6 °F 35.6 °F 29.57 in Calm     96 % 0.00 in 0.0 W/m2 CLR
03:13 36.6 °F 35.6 °F 29.57 in Calm     96 % 0.00 in 0.0 W/m2 CLR
03:18 36.6 °F 35.6 °F 29.57 in Calm     96 % 0.00 in 0.0 W/m2 CLR
03:23 36.6 °F 35.6 °F 29.57 in Calm     96 % 0.00 in 0.0 W/m2 CLR
03:28 36.6 °F 35.6 °F 29.57 in Calm     96 % 0.00 in 0.0 W/m2 CLR
03:33 36.6 °F 35.6 °F 29.57 in Calm     96 % 0.00 in 0.0 W/m2 CLR
03:38 36.6 °F 35.6 °F 29.56 in Calm     96 % 0.00 in 0.0 W/m2 CLR
03:43 36.6 °F 35.6 °F 29.57 in Calm     96 % 0.00 in 0.0 W/m2 CLR
03:48 36.7 °F 35.7 °F 29.57 in Calm     96 % 0.00 in 0.0 W/m2 CLR
03:53 36.8 °F 35.8 °F 29.57 in Calm     96 % 0.00 in 0.0 W/m2 CLR
03:59 36.8 °F 35.8 °F 29.58 in NW 0.1 mph   96 % 0.00 in 0.0 W/m2 CLR
04:04 37.0 °F 36.0 °F 29.57 in Calm     96 % 0.00 in 0.0 W/m2 CLR
04:09 37.0 °F 36.0 °F 29.58 in Calm     96 % 0.00 in 0.0 W/m2 CLR
04:14 37.3 °F 36.3 °F 29.57 in Calm     96 % 0.00 in 0.0 W/m2 CLR
04:19 37.3 °F 36.3 °F 29.58 in NW 0.3 mph 3.5 mph 96 % 0.00 in 0.0 W/m2 CLR
04:24 37.2 °F 36.2 °F 29.57 in NW 1.2 mph 2.3 mph 96 % 0.00 in 0.0 W/m2 CLR
04:29 37.2 °F 36.2 °F 29.58 in Calm     96 % 0.00 in 0.0 W/m2 CLR
04:34 37.1 °F 36.1 °F 29.58 in Calm     96 % 0.00 in 0.0 W/m2 CLR
04:39 37.1 °F 36.1 °F 29.57 in Calm     96 % 0.00 in 0.0 W/m2 CLR
04:44 37.0 °F 36.0 °F 29.57 in Calm     96 % 0.00 in 0.0 W/m2 CLR
04:49 36.8 °F 35.8 °F 29.57 in WNW 1.7 mph 3.5 mph 96 % 0.00 in 0.0 W/m2 CLR
04:54 36.6 °F 35.6 °F 29.57 in Calm     96 % 0.00 in 0.0 W/m2 CLR
04:59 36.6 °F 35.6 °F 29.57 in Calm     96 % 0.00 in 0.0 W/m2 CLR
05:04 36.4 °F 35.4 °F 29.57 in Calm     96 % 0.00 in 0.0 W/m2 CLR
05:09 36.3 °F 35.3 °F 29.57 in Calm     96 % 0.00 in 0.0 W/m2 CLR
05:14 36.0 °F 35.0 °F 29.57 in Calm     96 % 0.00 in 0.0 W/m2 CLR
05:19 35.9 °F 34.9 °F 29.57 in Calm     96 % 0.00 in 0.0 W/m2 CLR
05:24 35.8 °F 34.8 °F 29.57 in Calm     96 % 0.00 in 0.0 W/m2 CLR
05:29 36.0 °F 35.0 °F 29.57 in Calm     96 % 0.01 in 0.0 W/m2 RA
05:34 35.3 °F 34.3 °F 29.58 in Calm     96 % 0.01 in 0.0 W/m2 RA
05:39 35.3 °F 34.3 °F 29.58 in Calm     96 % 0.01 in 0.0 W/m2
05:44 35.1 °F 34.1 °F 29.58 in Calm     96 % 0.01 in 0.0 W/m2
05:49 35.2 °F 34.2 °F 29.59 in Calm     96 % 0.01 in 0.0 W/m2
05:54 34.9 °F 33.9 °F 29.59 in Calm     96 % 0.01 in 0.0 W/m2
05:59 35.0 °F 34.0 °F 29.59 in Calm     96 % 0.01 in 0.0 W/m2
06:04 35.0 °F 34.0 °F 29.59 in Calm     96 % 0.01 in 0.0 W/m2
06:09 34.9 °F 33.9 °F 29.59 in Calm     96 % 0.01 in 0.0 W/m2
06:14 34.9 °F 33.9 °F 29.59 in Calm   1.2 mph 96 % 0.01 in 0.0 W/m2
06:19 34.6 °F 33.6 °F 29.59 in Calm     96 % 0.01 in 0.0 W/m2
06:24 34.5 °F 33.5 °F 29.59 in Calm     96 % 0.01 in 0.0 W/m2
06:29 34.5 °F 33.5 °F 29.60 in Calm     96 % 0.00 in 0.0 W/m2 CLR
06:34 34.2 °F 33.2 °F 29.59 in Calm     96 % 0.00 in 0.0 W/m2 CLR
06:39 34.0 °F 33.0 °F 29.59 in Calm     96 % 0.00 in 0.0 W/m2 CLR
06:44 33.9 °F 32.9 °F 29.60 in Calm     96 % 0.00 in 0.0 W/m2 CLR
06:49 33.9 °F 32.9 °F 29.60 in Calm     96 % 0.00 in 0.0 W/m2 CLR
06:54 33.8 °F 32.8 °F 29.60 in Calm     96 % 0.00 in 0.0 W/m2 CLR
06:59 33.9 °F 32.9 °F 29.60 in Calm     96 % 0.00 in 0.0 W/m2 CLR
07:04 33.6 °F 32.6 °F 29.60 in Calm     96 % 0.00 in 0.0 W/m2 CLR
07:09 33.8 °F 32.8 °F 29.60 in Calm     96 % 0.00 in 0.0 W/m2 CLR
07:14 33.7 °F 32.7 °F 29.60 in Calm     96 % 0.00 in 0.0 W/m2 CLR
07:19 33.4 °F 32.4 °F 29.60 in Calm     96 % 0.00 in 5.0 W/m2 CLR
07:24 33.5 °F 32.5 °F 29.61 in Calm     96 % 0.00 in 7.0 W/m2 CLR
07:29 33.4 °F 32.4 °F 29.61 in Calm     96 % 0.00 in 9.0 W/m2 CLR
07:34 33.2 °F 32.2 °F 29.61 in Calm     96 % 0.00 in 12.0 W/m2 CLR
07:39 33.3 °F 32.3 °F 29.61 in Calm     96 % 0.00 in 26.0 W/m2 CLR
07:44 33.6 °F 32.6 °F 29.61 in Calm     96 % 0.00 in 37.0 W/m2 CLR
07:45 33.6 °F 32.6 °F 29.61 in Calm     96 % 0.00 in 42.0 W/m2 CLR
07:50 33.8 °F 32.8 °F 29.62 in Calm     96 % 0.00 in 81.0 W/m2 CLR
07:55 34.6 °F 33.6 °F 29.65 in NNW 5.8 mph 11.5 mph 96 % 0.00 in 39.0 W/m2 SCT
08:00 35.3 °F 34.5 °F 29.64 in NNW 1.0 mph 2.3 mph 97 % 0.00 in 44.0 W/m2 FEW
08:05 35.8 °F 35.0 °F 29.63 in Calm     97 % 0.00 in 33.0 W/m2 BKN
08:10 36.1 °F 35.3 °F 29.64 in WSW 1.9 mph 3.5 mph 97 % 0.00 in 54.0 W/m2 SCT
08:15 36.1 °F 35.3 °F 29.64 in Calm     97 % 0.00 in 47.0 W/m2 BKN
08:20 36.4 °F 35.6 °F 29.65 in Calm     97 % 0.00 in 74.0 W/m2 SCT
08:25 36.6 °F 35.8 °F 29.65 in Calm     97 % 0.00 in 84.0 W/m2 SCT
08:30 36.6 °F 35.8 °F 29.65 in Calm     97 % 0.00 in 97.0 W/m2 FEW
08:35 36.9 °F 36.1 °F 29.65 in WSW 1.4 mph 2.3 mph 97 % 0.00 in 53.0 W/m2 BKN
08:40 37.0 °F 36.2 °F 29.66 in WSW 2.0 mph 3.5 mph 97 % 0.00 in 51.0 W/m2 BKN
08:45 37.2 °F 36.4 °F 29.66 in Calm     97 % 0.00 in 67.0 W/m2 BKN
08:50 37.4 °F 36.6 °F 29.66 in WSW 0.1 mph 1.0 mph 97 % 0.00 in 58.0 W/m2 BKN
08:55 37.6 °F 36.8 °F 29.66 in Calm     97 % 0.00 in 62.0 W/m2 BKN
09:00 37.9 °F 37.1 °F 29.67 in WSW 0.1 mph 1.0 mph 97 % 0.00 in 88.0 W/m2 BKN
09:05 38.0 °F 37.2 °F 29.67 in Calm     97 % 0.00 in 109.0 W/m2 BKN
09:10 38.3 °F 37.5 °F 29.67 in Calm     97 % 0.00 in 176.0 W/m2 FEW
09:15 38.9 °F 38.1 °F 29.67 in Calm     97 % 0.00 in 151.0 W/m2 SCT
09:20 39.3 °F 38.5 °F 29.67 in Calm     97 % 0.00 in 118.0 W/m2 BKN
09:25 39.6 °F 38.8 °F 29.68 in Calm     97 % 0.00 in 72.0 W/m2 BKN
09:31 39.9 °F 39.1 °F 29.68 in Calm     97 % 0.00 in 65.0 W/m2 OVC
09:36 39.9 °F 39.1 °F 29.69 in Calm     97 % 0.00 in 54.0 W/m2 OVC
09:41 40.1 °F 39.3 °F 29.69 in Calm     97 % 0.00 in 86.0 W/m2 OVC
09:46 40.5 °F 39.7 °F 29.69 in Calm     97 % 0.00 in 128.0 W/m2 BKN
09:51 40.9 °F 40.1 °F 29.70 in WSW 0.2 mph 2.3 mph 97 % 0.00 in 181.0 W/m2 SCT
09:56 41.2 °F 40.4 °F 29.70 in Calm     97 % 0.00 in 216.0 W/m2 FEW
10:01 42.1 °F 41.3 °F 29.70 in Calm     97 % 0.00 in 234.0 W/m2 FEW
10:06 42.8 °F 42.0 °F 29.70 in Calm     97 % 0.00 in 441.0 W/m2 CLR
10:14 44.4 °F 43.6 °F 29.70 in WSW 1.0 mph 2.0 mph 97 % 0.00 in 432.0 W/m2 RA
10:23 45.9 °F 45.1 °F 29.70 in WSW 1.2 mph 2.0 mph 97 % 0.00 in 339.0 W/m2 CLR
10:28 46.7 °F 45.9 °F 29.70 in WSW 0.9 mph 2.3 mph 97 % 0.00 in 381.0 W/m2 FEW
10:33 47.2 °F 46.4 °F 29.70 in SW 2.6 mph 3.5 mph 97 % 0.00 in 345.0 W/m2 CLR
10:38 48.1 °F 47.0 °F 29.70 in SW 1.3 mph 3.5 mph 96 % 0.00 in 229.0 W/m2 SCT
10:43 49.0 °F 47.9 °F 29.70 in SW 0.5 mph 2.3 mph 96 % 0.00 in 338.0 W/m2 CLR
10:48 49.7 °F 48.6 °F 29.70 in SSW 2.4 mph 3.5 mph 96 % 0.00 in 218.0 W/m2 CLR
10:53 51.0 °F 49.9 °F 29.70 in SW 2.0 mph 3.5 mph 96 % 0.00 in 237.0 W/m2 SCT
10:58 51.8 °F 50.4 °F 29.70 in West 1.2 mph 3.5 mph 95 % 0.00 in 350.0 W/m2 CLR
11:03 52.5 °F 50.8 °F 29.70 in West 0.1 mph 1.2 mph 94 % 0.00 in 448.0 W/m2 CLR
11:08 53.6 °F 51.6 °F 29.71 in WSW 5.3 mph 10.4 mph 93 % 0.00 in 485.0 W/m2 CLR
11:13 55.3 °F 51.8 °F 29.71 in West 7.0 mph 17.3 mph 88 % 0.00 in 450.0 W/m2 CLR
11:18 56.5 °F 50.7 °F 29.71 in WNW 6.2 mph 11.5 mph 81 % 0.00 in 566.0 W/m2 CLR
11:24 57.6 °F 48.3 °F 29.70 in WSW 7.9 mph 17.3 mph 71 % 0.00 in 550.0 W/m2 CLR
11:29 58.6 °F 47.3 °F 29.70 in NW 8.1 mph 9.2 mph 66 % 0.00 in 599.0 W/m2 CLR
11:34 59.5 °F 46.9 °F 29.70 in NW 6.4 mph 12.7 mph 63 % 0.00 in 633.0 W/m2 CLR
11:39 59.4 °F 45.5 °F 29.70 in WNW 13.5 mph 16.1 mph 60 % 0.00 in 650.0 W/m2 CLR
11:44 59.6 °F 45.2 °F 29.70 in West 9.0 mph 11.5 mph 59 % 0.00 in 504.0 W/m2 CLR
11:49 59.3 °F 45.0 °F 29.70 in West 7.7 mph 11.5 mph 59 % 0.00 in 765.0 W/m2 CLR
11:54 60.1 °F 45.3 °F 29.70 in WNW 8.8 mph 12.7 mph 58 % 0.00 in 605.0 W/m2 CLR
11:59 60.4 °F 45.1 °F 29.70 in West 9.8 mph 15.0 mph 57 % 0.00 in 654.0 W/m2 CLR
12:04 60.1 °F 44.3 °F 29.69 in NW 7.8 mph 12.7 mph 56 % 0.00 in 752.0 W/m2 CLR
12:09 60.8 °F 46.4 °F 29.69 in NW 6.4 mph 11.5 mph 59 % 0.00 in 758.0 W/m2 CLR
12:14 59.6 °F 44.8 °F 29.70 in NW 13.3 mph 18.4 mph 58 % 0.00 in 227.0 W/m2 BKN
12:19 58.4 °F 44.1 °F 29.69 in NNW 9.6 mph 12.7 mph 59 % 0.00 in 506.0 W/m2 CLR
12:24 58.6 °F 43.9 °F 29.69 in NW 11.2 mph 17.3 mph 58 % 0.00 in 677.0 W/m2 CLR
12:29 59.1 °F 44.8 °F 29.69 in NNW 10.3 mph 14.0 mph 59 % 0.00 in 592.0 W/m2 CLR
12:34 59.3 °F 44.5 °F 29.69 in NW 9.8 mph 15.0 mph 58 % 0.00 in 636.0 W/m2 CLR
12:39 59.5 °F 44.2 °F 29.69 in NW 7.0 mph 11.5 mph 57 % 0.00 in 584.0 W/m2 CLR
12:44 59.7 °F 44.4 °F 29.69 in NW 9.0 mph 12.7 mph 57 % 0.00 in 657.0 W/m2 CLR
12:49 59.3 °F 44.5 °F 29.69 in NW 6.9 mph 12.7 mph 58 % 0.00 in 322.0 W/m2 FEW
12:54 59.0 °F 44.7 °F 29.69 in WNW 5.8 mph 12.7 mph 59 % 0.00 in 742.0 W/m2 CLR
12:59 59.8 °F 45.0 °F 29.68 in NNW 3.6 mph 8.0 mph 58 % 0.00 in 728.0 W/m2 CLR
13:04 59.6 °F 43.9 °F 29.68 in NW 9.5 mph 13.8 mph 56 % 0.00 in 376.0 W/m2 SCT
13:09 59.0 °F 44.2 °F 29.68 in NW 7.1 mph 11.5 mph 58 % 0.00 in 371.0 W/m2 FEW
13:14 58.3 °F 43.1 °F 29.69 in WSW 8.1 mph 10.4 mph 57 % 0.00 in 221.0 W/m2 BKN
13:19 57.8 °F 43.1 °F 29.68 in NNW 7.4 mph 11.5 mph 58 % 0.00 in 276.0 W/m2 SCT
13:24 57.6 °F 42.9 °F 29.68 in WNW 9.1 mph 12.0 mph 58 % 0.00 in 381.0 W/m2 FEW
13:29 58.2 °F 43.0 °F 29.68 in WNW 9.6 mph 12.7 mph 57 % 0.00 in 262.0 W/m2 SCT
13:34 57.6 °F 42.5 °F 29.68 in NW 9.7 mph 13.8 mph 57 % 0.00 in 274.0 W/m2 SCT
13:39 57.2 °F 42.1 °F 29.68 in NNW 9.1 mph 15.0 mph 57 % 0.00 in 232.0 W/m2 SCT
13:44 56.8 °F 41.7 °F 29.69 in WNW 6.1 mph 11.5 mph 57 % 0.00 in 195.0 W/m2 BKN
13:49 56.5 °F 41.4 °F 29.68 in NNW 7.4 mph 13.8 mph 57 % 0.00 in 199.0 W/m2 BKN
13:54 56.3 °F 41.7 °F 29.68 in NW 13.2 mph 19.6 mph 58 % 0.00 in 225.0 W/m2 BKN
13:59 56.3 °F 41.7 °F 29.69 in NNW 8.5 mph 12.0 mph 58 % 0.00 in 248.0 W/m2 SCT
14:04 56.5 °F 41.4 °F 29.69 in NNW 7.1 mph 11.5 mph 57 % 0.00 in 253.0 W/m2 SCT
14:09 56.7 °F 41.6 °F 29.69 in WNW 3.2 mph 5.8 mph 57 % 0.00 in 410.0 W/m2 FEW
14:14 57.8 °F 42.7 °F 29.69 in WNW 9.0 mph 16.1 mph 57 % 0.00 in 626.0 W/m2 CLR
14:19 58.6 °F 42.5 °F 29.69 in North 9.4 mph 12.7 mph 55 % 0.00 in 619.0 W/m2 CLR
14:24 58.8 °F 42.2 °F 29.69 in North 9.1 mph 13.8 mph 54 % 0.00 in 584.0 W/m2 CLR
14:29 58.6 °F 42.5 °F 29.69 in NW 8.6 mph 11.5 mph 55 % 0.00 in 515.0 W/m2 CLR
14:34 58.0 °F 41.9 °F 29.69 in NNW 6.5 mph 8.1 mph 55 % 0.00 in 230.0 W/m2 FEW
14:39 57.0 °F 41.4 °F 29.69 in NW 7.8 mph 8.0 mph 56 % 0.00 in 281.0 W/m2 FEW
14:44 57.0 °F 41.4 °F 29.69 in NW 8.1 mph 10.4 mph 56 % 0.00 in 232.0 W/m2 SCT
14:49 56.8 °F 41.3 °F 29.69 in NW 11.5 mph 15.0 mph 56 % 0.00 in 334.0 W/m2 CLR
14:54 56.6 °F 41.5 °F 29.69 in NW 7.0 mph 13.8 mph 57 % 0.00 in 287.0 W/m2 CLR
14:59 56.5 °F 41.4 °F 29.70 in WNW 8.7 mph 11.5 mph 57 % 0.00 in 197.0 W/m2 FEW
15:05 56.1 °F 41.5 °F 29.69 in NNW 5.3 mph 10.4 mph 58 % 0.00 in 181.0 W/m2 SCT
15:10 55.8 °F 41.2 °F 29.69 in NW 5.4 mph 8.1 mph 58 % 0.00 in 360.0 W/m2 FEW
15:15 56.7 °F 41.6 °F 29.70 in WNW 10.1 mph 12.7 mph 57 % 0.00 in 490.0 W/m2 CLR
15:20 57.5 °F 41.4 °F 29.71 in NW 9.0 mph 11.5 mph 55 % 0.00 in 376.0 W/m2 CLR
15:25 57.5 °F 41.4 °F 29.71 in West 4.5 mph 9.2 mph 55 % 0.00 in 362.0 W/m2 CLR
15:30 56.7 °F 40.2 °F 29.71 in WNW 7.0 mph 8.1 mph 54 % 0.00 in 227.0 W/m2 CLR
15:35 56.6 °F 40.1 °F 29.71 in NW 5.6 mph 9.2 mph 54 % 0.00 in 276.0 W/m2 CLR
15:40 56.6 °F 40.1 °F 29.71 in NNW 5.5 mph 12.7 mph 54 % 0.00 in 301.0 W/m2 CLR
15:45 56.4 °F 40.0 °F 29.72 in NW 7.6 mph 11.5 mph 54 % 0.00 in 250.0 W/m2 CLR
15:50 56.4 °F 40.0 °F 29.72 in WNW 6.2 mph 12.0 mph 54 % 0.00 in 237.0 W/m2 CLR
15:55 56.0 °F 40.1 °F 29.73 in NW 9.1 mph 15.0 mph 55 % 0.00 in 202.0 W/m2 CLR
16:00 55.2 °F 39.8 °F 29.72 in NNW 6.5 mph 10.4 mph 56 % 0.00 in 84.0 W/m2 SCT
16:05 54.5 °F 40.0 °F 29.72 in NW 6.3 mph 10.4 mph 58 % 0.00 in 72.0 W/m2 BKN
16:10 54.2 °F 39.7 °F 29.72 in NW 7.5 mph 11.5 mph 58 % 0.00 in 54.0 W/m2 BKN
16:15 53.8 °F 39.8 °F 29.72 in NW 9.7 mph 12.7 mph 59 % 0.00 in 123.0 W/m2 SCT
16:20 53.8 °F 39.8 °F 29.72 in NNW 9.3 mph 12.7 mph 59 % 0.00 in 192.0 W/m2 CLR
16:25 54.0 °F 40.0 °F 29.72 in WNW 5.5 mph 9.2 mph 59 % 0.00 in 141.0 W/m2 CLR
16:30 53.8 °F 39.8 °F 29.72 in WNW 8.2 mph 11.5 mph 59 % 0.00 in 90.0 W/m2 CLR
16:35 53.4 °F 39.0 °F 29.72 in NW 6.6 mph 12.7 mph 58 % 0.00 in 65.0 W/m2 FEW
16:40 52.9 °F 39.0 °F 29.72 in NW 5.8 mph 9.2 mph 59 % 0.00 in 60.0 W/m2 FEW
16:45 52.5 °F 39.0 °F 29.72 in NW 3.1 mph 5.8 mph 60 % 0.00 in 42.0 W/m2 SCT
16:50 52.1 °F 38.6 °F 29.72 in NW 6.0 mph 11.5 mph 60 % 0.00 in 30.0 W/m2 BKN
16:55 51.8 °F 38.3 °F 29.72 in WNW 4.9 mph 9.2 mph 60 % 0.00 in 28.0 W/m2 SCT
17:00 51.6 °F 38.6 °F 29.71 in NW 3.6 mph 4.6 mph 61 % 0.00 in 25.0 W/m2 SCT
17:05 51.3 °F 38.3 °F 29.72 in NW 3.4 mph 9.2 mph 61 % 0.00 in 19.0 W/m2 SCT
17:10 51.2 °F 37.8 °F 29.72 in NW 2.8 mph 4.6 mph 60 % 0.00 in 16.0 W/m2 FEW
17:15 50.8 °F 37.8 °F 29.72 in NW 3.5 mph 8.1 mph 61 % 0.00 in 12.0 W/m2 FEW
17:20 50.4 °F 37.9 °F 29.72 in NNW 4.1 mph 8.1 mph 62 % 0.00 in 5.0 W/m2 SCT
17:25 50.1 °F 38.0 °F 29.72 in NW 2.9 mph 4.6 mph 63 % 0.00 in 0.0 W/m2 CLR
17:30 49.9 °F 37.8 °F 29.72 in NW 2.0 mph 4.6 mph 63 % 0.00 in 0.0 W/m2 CLR
17:35 49.8 °F 38.1 °F 29.72 in NW 3.3 mph 4.6 mph 64 % 0.00 in 0.0 W/m2 CLR
17:40 49.7 °F 38.0 °F 29.72 in NW 2.7 mph 9.2 mph 64 % 0.00 in 0.0 W/m2 CLR
17:45 49.6 °F 37.9 °F 29.72 in Calm   2.3 mph 64 % 0.00 in 0.0 W/m2 CLR
17:50 49.2 °F 37.5 °F 29.71 in Calm   3.5 mph 64 % 0.00 in 0.0 W/m2 CLR
17:55 48.9 °F 37.6 °F 29.71 in NW 1.6 mph 4.6 mph 65 % 0.00 in 0.0 W/m2 CLR
18:00 48.8 °F 37.6 °F 29.71 in NW 1.1 mph 4.0 mph 65 % 0.00 in 0.0 W/m2 CLR
18:06 48.8 °F 37.6 °F 29.72 in NW 1.7 mph 2.3 mph 65 % 0.00 in 0.0 W/m2 CLR
18:11 48.8 °F 37.6 °F 29.72 in NW 1.6 mph 3.5 mph 65 % 0.00 in 0.0 W/m2 CLR
18:16 48.9 °F 37.6 °F 29.73 in NW 0.7 mph 6.9 mph 65 % 0.00 in 0.0 W/m2 CLR
18:21 48.9 °F 37.6 °F 29.74 in WNW 2.5 mph 6.9 mph 65 % 0.00 in 0.0 W/m2 CLR
18:26 48.9 °F 37.6 °F 29.73 in NW 0.7 mph 3.5 mph 65 % 0.00 in 0.0 W/m2 CLR
18:31 48.6 °F 37.4 °F 29.73 in Calm     65 % 0.00 in 0.0 W/m2 CLR
18:36 48.3 °F 37.5 °F 29.72 in NNW 1.0 mph 5.0 mph 66 % 0.00 in 0.0 W/m2 CLR
18:41 48.2 °F 37.4 °F 29.73 in NNW 1.4 mph 2.3 mph 66 % 0.00 in 0.0 W/m2 CLR
18:46 48.1 °F 37.3 °F 29.73 in NW 0.4 mph 2.3 mph 66 % 0.00 in 0.0 W/m2 CLR
18:51 47.9 °F 37.5 °F 29.73 in NW 0.3 mph 1.2 mph 67 % 0.00 in 0.0 W/m2 CLR
18:56 47.8 °F 37.4 °F 29.72 in NW 0.9 mph 3.5 mph 67 % 0.00 in 0.0 W/m2 CLR
19:01 47.5 °F 37.1 °F 29.73 in NW 0.7 mph 3.5 mph 67 % 0.00 in 0.0 W/m2 CLR
19:06 47.5 °F 37.1 °F 29.73 in NNW 1.6 mph 3.5 mph 67 % 0.00 in 0.0 W/m2 CLR
19:11 47.2 °F 36.8 °F 29.74 in NNW 1.8 mph 3.5 mph 67 % 0.00 in 0.0 W/m2 CLR
19:16 46.8 °F 36.4 °F 29.74 in NNW 0.2 mph 1.0 mph 67 % 0.00 in 0.0 W/m2 CLR
19:21 46.3 °F 36.3 °F 29.74 in Calm     68 % 0.00 in 0.0 W/m2 CLR
19:26 46.0 °F 36.4 °F 29.74 in Calm     69 % 0.00 in 0.0 W/m2 CLR
19:27 46.0 °F 36.4 °F 29.74 in Calm     69 % 0.00 in 0.0 W/m2 CLR
19:32 45.8 °F 36.2 °F 29.74 in Calm     69 % 0.00 in 0.0 W/m2 CLR
19:37 45.7 °F 36.5 °F 29.74 in Calm     70 % 0.00 in 0.0 W/m2 CLR
19:42 45.5 °F 36.3 °F 29.74 in Calm     70 % 0.00 in 0.0 W/m2 CLR
19:47 45.6 °F 36.4 °F 29.74 in NNW 0.9 mph 3.5 mph 70 % 0.00 in 0.0 W/m2 CLR
19:52 45.6 °F 36.7 °F 29.74 in NNE 4.2 mph 8.1 mph 71 % 0.00 in 0.0 W/m2 CLR
19:57 45.7 °F 36.5 °F 29.74 in North 0.4 mph 2.3 mph 70 % 0.00 in 0.0 W/m2 CLR
20:02 45.7 °F 36.5 °F 29.74 in NNE 2.5 mph 3.5 mph 70 % 0.00 in 0.0 W/m2 CLR
20:07 45.5 °F 36.3 °F 29.74 in NNE 2.4 mph 3.5 mph 70 % 0.00 in 0.0 W/m2 CLR
20:12 45.4 °F 36.2 °F 29.74 in NNE 1.2 mph 3.5 mph 70 % 0.00 in 0.0 W/m2 CLR
20:17 45.3 °F 36.4 °F 29.74 in NNE 1.1 mph 2.3 mph 71 % 0.00 in 0.0 W/m2 CLR
20:22 45.1 °F 36.3 °F 29.73 in NNE 3.7 mph 5.0 mph 71 % 0.00 in 0.0 W/m2 CLR
20:27 44.9 °F 35.7 °F 29.73 in NNE 5.2 mph 8.1 mph 70 % 0.00 in 0.0 W/m2 CLR
20:32 44.7 °F 35.5 °F 29.74 in NNE 2.0 mph 4.6 mph 70 % 0.00 in 0.0 W/m2 CLR
20:37 44.6 °F 35.4 °F 29.73 in NNE 2.9 mph 4.6 mph 70 % 0.00 in 0.0 W/m2 CLR
20:42 44.4 °F 35.2 °F 29.73 in NNE 2.0 mph 4.0 mph 70 % 0.00 in 0.0 W/m2 CLR
20:47 44.3 °F 35.1 °F 29.73 in NNE 1.5 mph 3.5 mph 70 % 0.00 in 0.0 W/m2 CLR
20:52 44.1 °F 34.9 °F 29.73 in NNE 1.3 mph 3.5 mph 70 % 0.00 in 0.0 W/m2 CLR
20:57 43.8 °F 34.6 °F 29.73 in NNE 1.7 mph 3.5 mph 70 % 0.00 in 0.0 W/m2 CLR
21:02 43.5 °F 34.4 °F 29.72 in Calm     70 % 0.00 in 0.0 W/m2 CLR
21:07 43.1 °F 34.3 °F 29.72 in Calm     71 % 0.00 in 0.0 W/m2 CLR
21:12 42.8 °F 34.4 °F 29.73 in NNE 0.2 mph 1.2 mph 72 % 0.00 in 0.0 W/m2 CLR
21:17 42.3 °F 33.9 °F 29.72 in Calm     72 % 0.00 in 0.0 W/m2 CLR
21:22 42.4 °F 34.4 °F 29.72 in Calm     73 % 0.00 in 0.0 W/m2 CLR
21:27 42.4 °F 34.4 °F 29.72 in North 0.3 mph 3.5 mph 73 % 0.00 in 0.0 W/m2 CLR
21:32 42.2 °F 34.2 °F 29.72 in Calm     73 % 0.00 in 0.0 W/m2 CLR
21:37 41.9 °F 34.2 °F 29.71 in North 1.8 mph 3.0 mph 74 % 0.00 in 0.0 W/m2 CLR
21:42 42.0 °F 34.3 °F 29.71 in Calm     74 % 0.00 in 0.0 W/m2 CLR
21:47 42.1 °F 34.4 °F 29.71 in North 1.2 mph 3.5 mph 74 % 0.00 in 0.0 W/m2 CLR
21:52 42.1 °F 34.4 °F 29.70 in NNE 2.5 mph 3.5 mph 74 % 0.00 in 0.0 W/m2 CLR
21:57 42.1 °F 34.4 °F 29.70 in Calm     74 % 0.00 in 0.0 W/m2 CLR
22:02 42.0 °F 34.3 °F 29.71 in NNE 0.1 mph 1.2 mph 74 % 0.00 in 0.0 W/m2 CLR
22:07 42.0 °F 34.3 °F 29.71 in North 0.2 mph 2.3 mph 74 % 0.00 in 0.0 W/m2 CLR
22:12 41.9 °F 34.2 °F 29.71 in North 0.2 mph 2.0 mph 74 % 0.00 in 0.0 W/m2 CLR
22:17 41.7 °F 34.0 °F 29.70 in NNE 0.7 mph 2.3 mph 74 % 0.00 in 0.0 W/m2 CLR
22:22 41.4 °F 33.7 °F 29.70 in NNE 1.7 mph 3.5 mph 74 % 0.00 in 0.0 W/m2 CLR
22:27 41.4 °F 33.7 °F 29.70 in NE 4.3 mph 8.1 mph 74 % 0.00 in 0.0 W/m2 CLR
22:32 41.3 °F 33.3 °F 29.69 in NNE 3.3 mph 6.9 mph 73 % 0.00 in 0.0 W/m2 CLR
22:37 41.2 °F 33.2 °F 29.69 in NE 3.9 mph 5.8 mph 73 % 0.00 in 0.0 W/m2 CLR
22:42 41.0 °F 33.0 °F 29.69 in NE 3.3 mph 5.8 mph 73 % 0.00 in 0.0 W/m2 CLR
22:47 40.9 °F 32.9 °F 29.69 in NE 3.3 mph 5.8 mph 73 % 0.00 in 0.0 W/m2 CLR
22:52 40.8 °F 32.8 °F 29.69 in NNE 5.7 mph 10.0 mph 73 % 0.00 in 0.0 W/m2 CLR
22:58 40.7 °F 32.4 °F 29.69 in NNE 2.2 mph 3.5 mph 72 % 0.00 in 0.0 W/m2 CLR
23:03 40.5 °F 32.2 °F 29.69 in NE 3.6 mph 5.8 mph 72 % 0.00 in 0.0 W/m2 CLR
23:08 40.4 °F 32.1 °F 29.68 in NE 3.1 mph 6.9 mph 72 % 0.00 in 0.0 W/m2 CLR
23:13 40.3 °F 32.0 °F 29.69 in NE 5.3 mph 9.2 mph 72 % 0.00 in 0.0 W/m2 CLR
23:18 40.2 °F 31.9 °F 29.68 in NE 3.9 mph 4.6 mph 72 % 0.00 in 0.0 W/m2 CLR
23:23 40.1 °F 31.8 °F 29.68 in NE 4.8 mph 5.0 mph 72 % 0.00 in 0.0 W/m2 CLR
23:28 40.0 °F 31.7 °F 29.68 in ENE 1.9 mph 4.0 mph 72 % 0.00 in 0.0 W/m2 CLR
23:33 39.9 °F 31.6 °F 29.67 in NE 3.2 mph 3.5 mph 72 % 0.00 in 0.0 W/m2 CLR
23:38 39.7 °F 31.4 °F 29.67 in NE 4.1 mph 6.9 mph 72 % 0.00 in 0.0 W/m2 CLR
23:43 39.7 °F 31.8 °F 29.67 in ENE 1.7 mph 3.5 mph 73 % 0.00 in 0.0 W/m2 CLR
23:48 39.5 °F 31.6 °F 29.68 in NE 2.4 mph 3.5 mph 73 % 0.00 in 0.0 W/m2 CLR
23:53 39.4 °F 31.5 °F 29.68 in NE 3.3 mph 4.6 mph 73 % 0.00 in 0.0 W/m2 CLR
23:58 39.2 °F 31.3 °F 29.68 in NE 1.9 mph 3.5 mph 73 % 0.00 in 0.0 W/m2 CLR
Air Products Campus Weather
Compliments of Weather Underground - 3.5 mb